createdAt,value
2023-05-19T00:00:25.870Z,72.00
2023-05-19T00:01:25.863Z,73.23
2023-05-19T00:02:26.048Z,72.82
2023-05-19T00:03:25.926Z,72.72
2023-05-19T00:04:25.836Z,72.72
2023-05-19T00:05:25.839Z,73.23
2023-05-19T00:06:25.822Z,73.23
2023-05-19T00:07:25.794Z,71.69
2023-05-19T00:08:25.810Z,72.72
2023-05-19T00:09:25.781Z,73.02
2023-05-19T00:10:25.769Z,72.61
2023-05-19T00:11:25.765Z,72.20
2023-05-19T00:12:25.759Z,72.51
2023-05-19T00:13:25.748Z,72.20
2023-05-19T00:14:25.728Z,73.13
2023-05-19T00:15:25.713Z,72.41
2023-05-19T00:16:25.765Z,72.51
2023-05-19T00:17:25.739Z,73.16
2023-05-19T00:18:25.696Z,73.98
2023-05-19T00:19:26.303Z,73.98
2023-05-19T00:20:25.657Z,73.27
2023-05-19T00:21:25.654Z,74.19
2023-05-19T00:22:25.649Z,73.68
2023-05-19T00:23:25.654Z,73.57
2023-05-19T00:24:25.623Z,73.36
2023-05-19T00:25:25.607Z,73.78
2023-05-19T00:26:25.597Z,73.61
2023-05-19T00:27:25.607Z,72.75
2023-05-19T00:28:25.594Z,73.47
2023-05-19T00:29:25.578Z,73.78
2023-05-19T00:30:25.559Z,73.47
2023-05-19T00:31:25.604Z,73.78
2023-05-19T00:32:25.573Z,73.68
2023-05-19T00:33:25.534Z,73.81
2023-05-19T00:34:25.525Z,74.43
2023-05-19T00:35:25.503Z,73.10
2023-05-19T00:36:25.511Z,73.71
2023-05-19T00:37:25.511Z,73.81
2023-05-19T00:38:25.487Z,73.81
2023-05-19T00:39:25.473Z,74.63
2023-05-19T00:40:25.456Z,74.43
2023-05-19T00:41:25.467Z,73.19
2023-05-19T00:42:25.503Z,73.10
2023-05-19T00:43:25.431Z,73.50
2023-05-19T00:44:25.424Z,74.43
2023-05-19T00:45:25.417Z,74.12
2023-05-19T00:46:25.457Z,74.32
2023-05-19T00:47:25.416Z,74.46
2023-05-19T00:48:25.385Z,73.85
2023-05-19T00:49:25.377Z,74.02
2023-05-19T00:50:25.374Z,73.33
2023-05-19T00:51:25.382Z,73.61
2023-05-19T00:52:25.343Z,73.91
2023-05-19T00:53:25.338Z,72.99
2023-05-19T00:54:25.333Z,73.19
2023-05-19T00:55:25.330Z,73.71
2023-05-19T00:56:25.319Z,72.78
2023-05-19T00:57:25.298Z,73.40
2023-05-19T00:58:25.290Z,74.02
2023-05-19T00:59:25.279Z,73.81
2023-05-19T01:00:25.280Z,73.81
2023-05-19T01:01:25.289Z,74.02
2023-05-19T01:02:25.398Z,73.50
2023-05-19T01:03:25.314Z,74.05
2023-05-19T01:04:25.237Z,74.05
2023-05-19T01:05:25.243Z,73.64
2023-05-19T01:06:25.209Z,74.02
2023-05-19T01:07:25.213Z,73.40
2023-05-19T01:08:25.194Z,73.95
2023-05-19T01:09:25.201Z,72.99
2023-05-19T01:10:25.189Z,74.67
2023-05-19T01:11:25.168Z,73.30
2023-05-19T01:12:25.185Z,72.89
2023-05-19T01:13:25.152Z,73.61
2023-05-19T01:14:25.220Z,73.10
2023-05-19T01:15:25.134Z,73.71
2023-05-19T01:16:25.166Z,74.63
2023-05-19T01:17:25.149Z,72.82
2023-05-19T01:18:25.107Z,73.74
2023-05-19T01:19:25.163Z,74.36
2023-05-19T01:20:25.098Z,74.57
2023-05-19T01:21:25.082Z,73.54
2023-05-19T01:22:25.079Z,73.54
2023-05-19T01:23:25.072Z,74.05
2023-05-19T01:24:25.071Z,74.26
2023-05-19T01:25:25.070Z,74.67
2023-05-19T01:26:25.030Z,74.26
2023-05-19T01:27:25.026Z,74.87
2023-05-19T01:28:25.021Z,75.18
2023-05-19T01:29:25.004Z,75.32
2023-05-19T01:30:24.984Z,75.52
2023-05-19T01:31:25.059Z,74.80
2023-05-19T01:32:25.003Z,75.32
2023-05-19T01:33:24.976Z,75.52
2023-05-19T01:34:24.959Z,75.42
2023-05-19T01:35:24.945Z,75.73
2023-05-19T01:36:24.932Z,75.63
2023-05-19T01:37:24.925Z,75.73
2023-05-19T01:38:24.925Z,75.52
2023-05-19T01:39:24.919Z,75.52
2023-05-19T01:40:24.903Z,75.63
2023-05-19T01:41:24.894Z,75.32
2023-05-19T01:42:24.893Z,75.73
2023-05-19T01:43:24.883Z,75.73
2023-05-19T01:44:24.873Z,75.63
2023-05-19T01:45:24.857Z,75.73
2023-05-19T01:46:25.015Z,75.73
2023-05-19T01:47:24.853Z,76.25
2023-05-19T01:48:24.829Z,76.28
2023-05-19T01:49:24.817Z,76.55
2023-05-19T01:50:24.810Z,75.87
2023-05-19T01:51:24.798Z,76.48
2023-05-19T01:52:24.798Z,77.20
2023-05-19T01:53:24.780Z,75.25
2023-05-19T01:54:24.779Z,75.97
2023-05-19T01:55:24.762Z,76.38
2023-05-19T01:56:24.748Z,75.83
2023-05-19T01:57:24.749Z,76.38
2023-05-19T01:58:24.725Z,76.65
2023-05-19T01:59:24.728Z,76.48
2023-05-19T02:00:24.706Z,77.10
2023-05-19T02:01:24.756Z,75.97
2023-05-19T02:02:24.741Z,75.87
2023-05-19T02:03:24.704Z,76.38
2023-05-19T02:04:24.739Z,76.28
2023-05-19T02:05:24.672Z,75.56
2023-05-19T02:06:24.672Z,75.73
2023-05-19T02:07:24.651Z,75.56
2023-05-19T02:08:24.649Z,75.93
2023-05-19T02:09:24.619Z,75.63
2023-05-19T02:10:24.610Z,75.63
2023-05-19T02:11:24.620Z,75.63
2023-05-19T02:12:24.603Z,75.83
2023-05-19T02:13:24.592Z,76.04
2023-05-19T02:14:24.585Z,75.83
2023-05-19T02:15:24.606Z,75.21
2023-05-19T02:16:24.664Z,75.42
2023-05-19T02:17:24.567Z,75.52
2023-05-19T02:18:24.538Z,76.45
2023-05-19T02:19:24.665Z,75.56
2023-05-19T02:20:24.547Z,75.42
2023-05-19T02:21:24.501Z,75.56
2023-05-19T02:22:24.491Z,75.93
2023-05-19T02:23:24.486Z,76.38
2023-05-19T02:24:24.474Z,77.10
2023-05-19T02:25:24.483Z,75.76
2023-05-19T02:26:24.470Z,76.07
2023-05-19T02:27:24.455Z,76.45
2023-05-19T02:28:24.435Z,76.14
2023-05-19T02:29:24.439Z,76.25
2023-05-19T02:30:24.435Z,75.83
2023-05-19T02:31:24.434Z,75.83
2023-05-19T02:32:24.408Z,76.07
2023-05-19T02:33:24.386Z,76.04
2023-05-19T02:34:24.396Z,75.52
2023-05-19T02:35:24.367Z,75.93
2023-05-19T02:36:24.370Z,75.97
2023-05-19T02:37:24.346Z,76.07
2023-05-19T02:38:24.333Z,77.10
2023-05-19T02:39:24.368Z,75.97
2023-05-19T02:40:24.314Z,76.28
2023-05-19T02:41:24.306Z,76.38
2023-05-19T02:42:24.297Z,76.38
2023-05-19T02:43:24.306Z,75.97
2023-05-19T02:44:24.292Z,76.28
2023-05-19T02:45:24.315Z,76.07
2023-05-19T02:46:24.283Z,76.59
2023-05-19T02:47:24.312Z,76.28
2023-05-19T02:48:24.254Z,75.25
2023-05-19T02:49:24.232Z,75.46
2023-05-19T02:50:24.227Z,76.35
2023-05-19T02:51:24.207Z,76.48
2023-05-19T02:52:24.204Z,76.18
2023-05-19T02:53:24.198Z,75.76
2023-05-19T02:54:24.191Z,75.97
2023-05-19T02:55:24.171Z,75.87
2023-05-19T02:56:24.158Z,76.18
2023-05-19T02:57:24.187Z,76.18
2023-05-19T02:58:24.154Z,75.76
2023-05-19T02:59:25.597Z,76.69
2023-05-19T03:00:24.125Z,76.48
2023-05-19T03:01:24.163Z,76.48
2023-05-19T03:02:24.116Z,76.69
2023-05-19T03:03:24.262Z,77.00
2023-05-19T03:04:24.087Z,76.38
2023-05-19T03:05:24.071Z,76.69
2023-05-19T03:06:24.057Z,76.31
2023-05-19T03:07:24.062Z,76.93
2023-05-19T03:08:24.044Z,77.03
2023-05-19T03:09:24.033Z,77.14
2023-05-19T03:10:24.023Z,77.45
2023-05-19T03:11:24.026Z,76.83
2023-05-19T03:12:24.018Z,77.55
2023-05-19T03:13:23.992Z,77.03
2023-05-19T03:14:24.257Z,77.34
2023-05-19T03:15:23.970Z,77.14
2023-05-19T03:16:24.017Z,77.65
2023-05-19T03:17:23.980Z,77.34
2023-05-19T03:18:23.989Z,77.24
2023-05-19T03:19:23.988Z,76.11
2023-05-19T03:20:23.934Z,76.42
2023-05-19T03:21:23.926Z,76.48
2023-05-19T03:22:23.912Z,77.14
2023-05-19T03:23:23.904Z,77.45
2023-05-19T03:24:23.898Z,76.83
2023-05-19T03:25:23.903Z,77.62
2023-05-19T03:26:23.893Z,77.00
2023-05-19T03:27:23.877Z,77.65
2023-05-19T03:28:23.858Z,77.10
2023-05-19T03:29:23.834Z,74.84
2023-05-19T03:30:24.846Z,75.67
2023-05-19T03:31:23.836Z,76.07
2023-05-19T03:32:23.925Z,76.69
2023-05-19T03:33:23.941Z,76.69
2023-05-19T03:34:23.795Z,76.59
2023-05-19T03:35:23.801Z,77.00
2023-05-19T03:36:23.776Z,77.24
2023-05-19T03:37:23.772Z,76.69
2023-05-19T03:38:23.758Z,76.62
2023-05-19T03:39:23.767Z,77.00
2023-05-19T03:40:23.756Z,76.90
2023-05-19T03:41:23.731Z,76.52
2023-05-19T03:42:23.727Z,77.14
2023-05-19T03:43:23.702Z,76.62
2023-05-19T03:44:23.712Z,75.76
2023-05-19T03:45:23.729Z,76.59
2023-05-19T03:46:23.764Z,76.48
2023-05-19T03:47:23.724Z,75.76
2023-05-19T03:48:23.662Z,76.28
2023-05-19T03:49:23.796Z,76.28
2023-05-19T03:50:23.642Z,76.79
2023-05-19T03:51:23.634Z,76.79
2023-05-19T03:52:23.624Z,77.41
2023-05-19T03:53:23.626Z,76.90
2023-05-19T03:54:23.719Z,76.48
2023-05-19T03:55:23.595Z,76.59
2023-05-19T03:56:23.588Z,77.00
2023-05-19T03:57:23.573Z,77.00
2023-05-19T03:58:23.584Z,77.10
2023-05-19T03:59:23.556Z,76.69
2023-05-19T04:00:23.543Z,77.51
2023-05-19T04:01:23.539Z,77.10
2023-05-19T04:02:23.648Z,77.20
2023-05-19T04:03:23.668Z,77.82
2023-05-19T04:04:23.525Z,77.82
2023-05-19T04:05:23.496Z,77.31
2023-05-19T04:06:23.546Z,77.62
2023-05-19T04:07:24.497Z,76.28
2023-05-19T04:08:23.482Z,77.20
2023-05-19T04:09:23.458Z,75.67
2023-05-19T04:10:23.455Z,77.10
2023-05-19T04:11:23.441Z,76.76
2023-05-19T04:12:23.444Z,76.59
2023-05-19T04:13:23.428Z,75.73
2023-05-19T04:14:23.416Z,76.07
2023-05-19T04:15:23.398Z,76.38
2023-05-19T04:16:23.584Z,75.97
2023-05-19T04:17:23.432Z,76.45
2023-05-19T04:18:23.380Z,76.55
2023-05-19T04:19:23.439Z,76.48
2023-05-19T04:20:23.359Z,76.79
2023-05-19T04:21:23.365Z,76.28
2023-05-19T04:22:23.350Z,77.31
2023-05-19T04:23:23.341Z,76.90
2023-05-19T04:24:23.359Z,76.69
2023-05-19T04:25:23.314Z,76.59
2023-05-19T04:26:23.310Z,76.90
2023-05-19T04:27:23.296Z,77.00
2023-05-19T04:28:23.280Z,77.20
2023-05-19T04:29:23.270Z,77.10
2023-05-19T04:30:23.258Z,76.79
2023-05-19T04:31:23.311Z,76.79
2023-05-19T04:32:23.353Z,76.45
2023-05-19T04:33:23.236Z,75.42
2023-05-19T04:34:23.226Z,75.29
2023-05-19T04:35:23.226Z,75.21
2023-05-19T04:36:23.214Z,75.52
2023-05-19T04:37:23.198Z,75.08
2023-05-19T04:38:23.190Z,75.70
2023-05-19T04:39:23.178Z,76.00
2023-05-19T04:40:23.182Z,76.42
2023-05-19T04:41:23.168Z,76.10
2023-05-19T04:42:23.148Z,75.80
2023-05-19T04:43:23.137Z,75.73
2023-05-19T04:44:23.130Z,75.70
2023-05-19T04:45:24.124Z,74.77
2023-05-19T04:46:24.165Z,73.10
2023-05-19T04:47:23.119Z,74.12
2023-05-19T04:48:23.108Z,73.91
2023-05-19T04:49:23.093Z,73.78
2023-05-19T04:50:23.080Z,74.49
2023-05-19T04:51:23.076Z,73.98
2023-05-19T04:52:23.055Z,73.68
2023-05-19T04:53:23.043Z,73.57
2023-05-19T04:54:23.045Z,73.27
2023-05-19T04:55:23.024Z,73.98
2023-05-19T04:56:23.010Z,73.88
2023-05-19T04:57:23.005Z,73.98
2023-05-19T04:58:22.999Z,74.70
2023-05-19T04:59:22.995Z,74.08
2023-05-19T05:00:22.999Z,72.96
2023-05-19T05:01:23.009Z,73.68
2023-05-19T05:02:23.015Z,75.21
2023-05-19T05:03:23.078Z,74.08
2023-05-19T05:04:22.978Z,72.96
2023-05-19T05:05:22.942Z,73.95
2023-05-19T05:06:22.925Z,74.26
2023-05-19T05:07:22.921Z,73.54
2023-05-19T05:08:22.922Z,73.85
2023-05-19T05:09:22.888Z,73.44
2023-05-19T05:10:22.894Z,74.15
2023-05-19T05:11:22.880Z,74.66
2023-05-19T05:12:22.863Z,73.74
2023-05-19T05:13:22.870Z,74.77
2023-05-19T05:14:22.853Z,74.77
2023-05-19T05:15:22.837Z,71.56
2023-05-19T05:16:22.865Z,74.12
2023-05-19T05:17:22.859Z,73.40
2023-05-19T05:18:22.810Z,73.27
2023-05-19T05:19:22.843Z,72.65
2023-05-19T05:20:22.786Z,72.17
2023-05-19T05:21:22.766Z,72.07
2023-05-19T05:22:23.770Z,72.44
2023-05-19T05:23:22.762Z,72.65
2023-05-19T05:24:22.759Z,71.01
2023-05-19T05:25:22.738Z,72.14
2023-05-19T05:26:22.722Z,73.06
2023-05-19T05:27:22.751Z,73.40
2023-05-19T05:28:22.705Z,73.06
2023-05-19T05:29:22.687Z,73.10
2023-05-19T05:30:22.690Z,73.61
2023-05-19T05:31:22.677Z,73.61
2023-05-19T05:32:22.714Z,73.19
2023-05-19T05:33:22.771Z,72.78
2023-05-19T05:34:22.637Z,73.36
2023-05-19T05:35:22.636Z,73.57
2023-05-19T05:36:22.663Z,73.36
2023-05-19T05:37:22.620Z,72.44
2023-05-19T05:38:22.615Z,71.01
2023-05-19T05:39:22.602Z,72.65
2023-05-19T05:40:22.614Z,71.52
2023-05-19T05:41:22.594Z,73.16
2023-05-19T05:42:22.569Z,72.58
2023-05-19T05:43:22.558Z,73.27
2023-05-19T05:44:22.586Z,72.96
2023-05-19T05:45:22.558Z,71.25
2023-05-19T05:46:22.564Z,73.71
2023-05-19T05:47:22.520Z,71.66
2023-05-19T05:48:22.512Z,71.62
2023-05-19T05:49:22.499Z,73.06
2023-05-19T05:50:22.501Z,72.96
2023-05-19T05:51:22.498Z,72.92
2023-05-19T05:52:22.485Z,72.99
2023-05-19T05:53:23.469Z,72.34
2023-05-19T05:54:22.479Z,71.12
2023-05-19T05:55:22.462Z,68.63
2023-05-19T05:56:22.437Z,67.18
2023-05-19T05:57:22.428Z,67.38
2023-05-19T05:58:22.408Z,67.48
2023-05-19T05:59:22.417Z,67.61
2023-05-19T06:00:22.426Z,68.66
2023-05-19T06:01:22.420Z,67.88
2023-05-19T06:02:22.426Z,68.49
2023-05-19T06:03:22.551Z,68.42
2023-05-19T06:04:22.374Z,69.45
2023-05-19T06:05:22.446Z,68.80
2023-05-19T06:06:22.376Z,67.88
2023-05-19T06:07:22.331Z,68.93
2023-05-19T06:08:22.334Z,69.72
2023-05-19T06:09:22.320Z,70.00
2023-05-19T06:10:22.322Z,66.28
2023-05-19T06:11:22.296Z,67.04
2023-05-19T06:12:22.297Z,64.81
2023-05-19T06:13:22.316Z,64.17
2023-05-19T06:14:22.273Z,60.70
2023-05-19T06:15:22.266Z,64.44
2023-05-19T06:16:22.272Z,63.59
2023-05-19T06:17:22.234Z,63.16
2023-05-19T06:18:22.250Z,58.86
2023-05-19T06:19:22.311Z,61.91
2023-05-19T06:20:22.195Z,59.20
2023-05-19T06:21:22.194Z,63.64
2023-05-19T06:22:22.217Z,65.99
2023-05-19T06:23:22.208Z,65.42
2023-05-19T06:24:22.181Z,60.80
2023-05-19T06:25:22.205Z,61.49
2023-05-19T06:26:22.146Z,60.00
2023-05-19T06:27:22.144Z,62.29
2023-05-19T06:28:22.126Z,60.20
2023-05-19T06:29:22.103Z,58.58
2023-05-19T06:30:22.091Z,58.04
2023-05-19T06:31:22.095Z,56.85
2023-05-19T06:32:22.109Z,58.42
2023-05-19T06:33:22.059Z,58.94
2023-05-19T06:34:22.060Z,59.21
2023-05-19T06:35:22.037Z,58.63
2023-05-19T06:36:22.029Z,58.91
2023-05-19T06:37:22.023Z,58.67
2023-05-19T06:38:22.004Z,58.14
2023-05-19T06:39:21.995Z,56.74
2023-05-19T06:40:21.983Z,55.02
2023-05-19T06:41:21.982Z,56.39
2023-05-19T06:42:22.012Z,56.41
2023-05-19T06:43:21.952Z,56.65
2023-05-19T06:44:21.949Z,55.30
2023-05-19T06:45:21.998Z,57.03
2023-05-19T06:46:21.966Z,60.20
2023-05-19T06:47:21.908Z,59.99
2023-05-19T06:48:21.891Z,57.48
2023-05-19T06:49:21.887Z,60.08
2023-05-19T06:50:21.882Z,60.61
2023-05-19T06:51:21.927Z,60.57
2023-05-19T06:52:21.860Z,60.93
2023-05-19T06:53:21.840Z,63.56
2023-05-19T06:54:21.834Z,62.54
2023-05-19T06:55:21.854Z,62.13
2023-05-19T06:56:21.829Z,62.61
2023-05-19T06:57:21.807Z,62.14
2023-05-19T06:58:21.789Z,60.69
2023-05-19T06:59:21.784Z,59.75
2023-05-19T07:00:23.809Z,58.63
2023-05-19T07:01:22.806Z,57.71
2023-05-19T07:02:21.747Z,58.50
2023-05-19T07:03:21.843Z,58.04
2023-05-19T07:04:21.736Z,57.20
2023-05-19T07:05:21.730Z,56.49
2023-05-19T07:06:21.723Z,56.09
2023-05-19T07:07:21.698Z,58.62
2023-05-19T07:08:21.689Z,56.62
2023-05-19T07:09:21.683Z,57.05
2023-05-19T07:10:21.677Z,57.00
2023-05-19T07:11:21.661Z,60.66
2023-05-19T07:12:21.649Z,56.49
2023-05-19T07:13:21.638Z,59.54
2023-05-19T07:14:21.639Z,59.31
2023-05-19T07:15:21.612Z,61.75
2023-05-19T07:16:21.616Z,57.99
2023-05-19T07:17:21.715Z,59.26
2023-05-19T07:18:21.598Z,56.13
2023-05-19T07:19:21.647Z,57.46
2023-05-19T07:20:21.553Z,60.27
2023-05-19T07:21:21.553Z,58.91
2023-05-19T07:22:21.534Z,60.33
2023-05-19T07:23:21.531Z,58.50
2023-05-19T07:24:21.528Z,57.68
2023-05-19T07:25:21.497Z,56.73
2023-05-19T07:26:21.496Z,61.68
2023-05-19T07:27:21.489Z,62.56
2023-05-19T07:28:21.487Z,58.80
2023-05-19T07:29:21.468Z,61.27
2023-05-19T07:30:21.441Z,58.98
2023-05-19T07:31:21.513Z,59.54
2023-05-19T07:32:21.523Z,60.46
2023-05-19T07:33:21.425Z,58.96
2023-05-19T07:34:21.405Z,61.37
2023-05-19T07:35:21.396Z,59.84
2023-05-19T07:36:21.383Z,60.89
2023-05-19T07:37:21.386Z,62.08
2023-05-19T07:38:21.379Z,62.29
2023-05-19T07:39:22.389Z,63.07
2023-05-19T07:40:21.346Z,58.58
2023-05-19T07:41:21.368Z,56.47
2023-05-19T07:42:21.338Z,59.75
2023-05-19T07:43:21.311Z,58.96
2023-05-19T07:44:21.300Z,62.79
2023-05-19T07:45:21.288Z,62.79
2023-05-19T07:46:21.350Z,60.53
2023-05-19T07:47:21.272Z,58.09
2023-05-19T07:48:21.261Z,60.36
2023-05-19T07:49:21.250Z,57.99
2023-05-19T07:50:21.241Z,59.34
2023-05-19T07:51:21.226Z,59.54
2023-05-19T07:52:21.225Z,60.97
2023-05-19T07:53:21.200Z,57.59
2023-05-19T07:54:21.197Z,58.40
2023-05-19T07:55:21.179Z,60.20
2023-05-19T07:56:21.190Z,62.23
2023-05-19T07:57:22.237Z,58.67
2023-05-19T07:58:21.149Z,58.04
2023-05-19T07:59:21.146Z,58.37
2023-05-19T08:00:21.127Z,59.36
2023-05-19T08:01:21.139Z,59.99
2023-05-19T08:02:21.144Z,61.99
2023-05-19T08:03:21.362Z,60.44
2023-05-19T08:04:21.101Z,58.45
2023-05-19T08:05:21.096Z,60.75
2023-05-19T08:06:21.088Z,60.27
2023-05-19T08:07:21.062Z,60.27
2023-05-19T08:08:21.045Z,58.65
2023-05-19T08:09:21.038Z,62.10
2023-05-19T08:10:21.129Z,59.53
2023-05-19T08:11:21.028Z,60.88
2023-05-19T08:12:21.003Z,60.44
2023-05-19T08:13:20.997Z,61.33
2023-05-19T08:14:20.988Z,60.72
2023-05-19T08:15:21.001Z,59.20
2023-05-19T08:16:21.037Z,58.62
2023-05-19T08:17:20.957Z,58.45
2023-05-19T08:18:20.941Z,61.08
2023-05-19T08:19:21.133Z,61.08
2023-05-19T08:20:20.940Z,59.43
2023-05-19T08:21:20.913Z,59.03
2023-05-19T08:22:20.905Z,59.41
2023-05-19T08:23:20.891Z,58.42
2023-05-19T08:24:20.911Z,62.51
2023-05-19T08:25:20.882Z,57.10
2023-05-19T08:26:20.861Z,58.31
2023-05-19T08:27:20.854Z,58.69
2023-05-19T08:28:20.846Z,56.36
2023-05-19T08:29:20.849Z,58.59
2023-05-19T08:30:20.826Z,59.17
2023-05-19T08:31:20.832Z,56.49
2023-05-19T08:32:20.798Z,56.79
2023-05-19T08:33:20.797Z,58.42
2023-05-19T08:34:20.852Z,60.31
2023-05-19T08:35:20.773Z,60.49
2023-05-19T08:36:20.772Z,57.78
2023-05-19T08:37:20.740Z,60.82
2023-05-19T08:38:20.780Z,58.16
2023-05-19T08:39:20.741Z,57.02
2023-05-19T08:40:20.720Z,60.36
2023-05-19T08:41:20.702Z,57.32
2023-05-19T08:42:20.786Z,57.04
2023-05-19T08:43:20.722Z,58.67
2023-05-19T08:44:20.681Z,58.18
2023-05-19T08:45:20.669Z,60.62
2023-05-19T08:46:20.727Z,59.41
2023-05-19T08:47:20.645Z,60.52
2023-05-19T08:48:20.651Z,60.08
2023-05-19T08:49:20.621Z,58.49
2023-05-19T08:50:20.611Z,60.31
2023-05-19T08:51:20.605Z,61.43
2023-05-19T08:52:20.627Z,61.33
2023-05-19T08:53:32.447Z,59.41
2023-05-19T08:54:22.585Z,60.82
2023-05-19T08:55:20.553Z,64.04
2023-05-19T08:56:20.552Z,57.75
2023-05-19T08:57:20.549Z,58.16
2023-05-19T08:58:20.554Z,59.99
2023-05-19T08:59:20.516Z,63.30
2023-05-19T09:00:20.505Z,57.22
2023-05-19T09:01:20.577Z,57.12
2023-05-19T09:02:20.500Z,56.54
2023-05-19T09:03:23.894Z,59.07
2023-05-19T09:04:21.543Z,57.96
2023-05-19T09:05:20.503Z,58.16
2023-05-19T09:06:20.479Z,58.54
2023-05-19T09:07:20.451Z,56.61
2023-05-19T09:08:20.439Z,58.13
2023-05-19T09:09:20.416Z,56.84
2023-05-19T09:10:20.483Z,58.29
2023-05-19T09:11:20.409Z,56.87
2023-05-19T09:12:20.389Z,59.43
2023-05-19T09:13:20.383Z,58.92
2023-05-19T09:14:20.439Z,60.52
2023-05-19T09:15:20.355Z,61.51
2023-05-19T09:16:20.362Z,60.39
2023-05-19T09:17:20.376Z,58.94
2023-05-19T09:18:20.353Z,59.45
2023-05-19T09:19:20.325Z,60.66
2023-05-19T09:20:20.363Z,56.54
2023-05-19T09:21:20.308Z,59.14
2023-05-19T09:22:20.280Z,62.82
2023-05-19T09:23:20.278Z,62.31
2023-05-19T09:24:20.259Z,58.76
2023-05-19T09:25:20.258Z,58.06
2023-05-19T09:26:20.239Z,59.25
2023-05-19T09:27:20.229Z,58.13
2023-05-19T09:28:20.274Z,58.64
2023-05-19T09:29:20.216Z,58.03
2023-05-19T09:30:20.265Z,54.49
2023-05-19T09:31:20.216Z,60.86
2023-05-19T09:32:20.217Z,55.30
2023-05-19T09:33:20.269Z,55.98
2023-05-19T09:34:20.152Z,58.81
2023-05-19T09:35:20.159Z,54.66
2023-05-19T09:36:20.133Z,58.20
2023-05-19T09:37:20.124Z,56.51
2023-05-19T09:38:20.115Z,57.24
2023-05-19T09:39:20.136Z,56.34
2023-05-19T09:40:20.105Z,57.96
2023-05-19T09:41:20.084Z,58.87
2023-05-19T09:42:20.076Z,59.34
2023-05-19T09:43:20.063Z,58.84
2023-05-19T09:44:20.064Z,56.82
2023-05-19T09:45:20.041Z,56.48
2023-05-19T09:46:20.176Z,54.56
2023-05-19T09:47:20.042Z,57.09
2023-05-19T09:48:20.012Z,56.86
2023-05-19T09:49:20.005Z,56.46
2023-05-19T09:50:19.987Z,57.27
2023-05-19T09:51:19.977Z,60.48
2023-05-19T09:52:19.963Z,56.96
2023-05-19T09:53:19.966Z,56.59
2023-05-19T09:54:19.952Z,58.92
2023-05-19T09:55:19.935Z,61.01
2023-05-19T09:56:19.933Z,61.99
2023-05-19T09:57:19.913Z,57.11
2023-05-19T09:58:19.917Z,57.75
2023-05-19T09:59:19.903Z,56.53
2023-05-19T10:00:19.881Z,58.25
2023-05-19T10:01:19.949Z,58.36
2023-05-19T10:02:19.859Z,58.73
2023-05-19T10:03:19.867Z,56.88
2023-05-19T10:04:19.849Z,53.42
2023-05-19T10:05:20.090Z,55.77
2023-05-19T10:06:19.824Z,56.30
2023-05-19T10:07:19.827Z,56.40
2023-05-19T10:08:19.815Z,56.91
2023-05-19T10:09:19.801Z,55.29
2023-05-19T10:10:19.797Z,55.49
2023-05-19T10:11:19.776Z,56.63
2023-05-19T10:12:19.778Z,53.93
2023-05-19T10:13:19.753Z,56.18
2023-05-19T10:14:19.747Z,57.70
2023-05-19T10:15:22.798Z,55.98
2023-05-19T10:16:19.763Z,56.46
2023-05-19T10:17:19.733Z,53.60
2023-05-19T10:18:19.703Z,53.22
2023-05-19T10:19:19.739Z,54.56
2023-05-19T10:20:19.703Z,54.41
2023-05-19T10:21:19.688Z,54.00
2023-05-19T10:22:19.676Z,54.89
2023-05-19T10:23:19.655Z,55.24
2023-05-19T10:24:19.643Z,53.38
2023-05-19T10:25:19.640Z,51.03
2023-05-19T10:26:19.646Z,50.52
2023-05-19T10:27:19.660Z,49.92
2023-05-19T10:28:19.614Z,52.44
2023-05-19T10:29:19.600Z,51.13
2023-05-19T10:30:19.603Z,51.10
2023-05-19T10:31:19.596Z,50.50
2023-05-19T10:32:19.664Z,50.93
2023-05-19T10:33:19.640Z,51.71
2023-05-19T10:34:19.580Z,49.41
2023-05-19T10:35:19.562Z,50.55
2023-05-19T10:36:19.551Z,50.93
2023-05-19T10:37:19.521Z,52.22
2023-05-19T10:38:19.515Z,50.90
2023-05-19T10:39:19.512Z,49.90
2023-05-19T10:40:19.510Z,50.70
2023-05-19T10:41:19.484Z,49.99
2023-05-19T10:42:19.490Z,50.70
2023-05-19T10:43:19.466Z,48.58
2023-05-19T10:44:19.457Z,49.13
2023-05-19T10:45:19.459Z,49.04
2023-05-19T10:46:19.465Z,52.49
2023-05-19T10:47:19.470Z,51.68
2023-05-19T10:48:19.423Z,52.36
2023-05-19T10:49:19.430Z,49.01
2023-05-19T10:50:19.432Z,49.13
2023-05-19T10:51:19.391Z,50.16
2023-05-19T10:52:19.382Z,50.70
2023-05-19T10:53:19.376Z,51.91
2023-05-19T10:54:19.377Z,50.59
2023-05-19T10:55:19.358Z,51.07
2023-05-19T10:56:19.349Z,50.65
2023-05-19T10:57:19.336Z,49.82
2023-05-19T10:58:19.362Z,49.21
2023-05-19T10:59:19.326Z,49.47
2023-05-19T11:00:19.307Z,49.85
2023-05-19T11:01:19.422Z,51.16
2023-05-19T11:02:20.392Z,50.40
2023-05-19T11:03:19.296Z,51.45
2023-05-19T11:04:19.320Z,52.64
2023-05-19T11:05:19.256Z,48.99
2023-05-19T11:06:19.251Z,50.30
2023-05-19T11:07:19.237Z,50.90
2023-05-19T11:08:19.231Z,49.94
2023-05-19T11:09:22.525Z,51.15
2023-05-19T11:10:21.593Z,49.09
2023-05-19T11:11:19.197Z,50.10
2023-05-19T11:12:19.195Z,49.15
2023-05-19T11:13:19.192Z,49.55
2023-05-19T11:14:19.196Z,49.32
2023-05-19T11:15:19.173Z,48.90
2023-05-19T11:16:19.199Z,48.92
2023-05-19T11:17:19.165Z,48.74
2023-05-19T11:18:19.141Z,48.74
2023-05-19T11:19:19.136Z,52.11
2023-05-19T11:20:19.111Z,52.97
2023-05-19T11:21:19.172Z,51.89
2023-05-19T11:22:19.105Z,54.10
2023-05-19T11:23:19.101Z,54.94
2023-05-19T11:24:19.090Z,51.30
2023-05-19T11:25:19.065Z,52.76
2023-05-19T11:26:19.053Z,53.50
2023-05-19T11:27:19.064Z,53.55
2023-05-19T11:28:19.079Z,52.82
2023-05-19T11:29:19.026Z,52.23
2023-05-19T11:30:19.016Z,53.98
2023-05-19T11:31:19.007Z,53.34
2023-05-19T11:32:19.038Z,52.59
2023-05-19T11:33:20.059Z,52.84
2023-05-19T11:34:18.980Z,49.27
2023-05-19T11:35:18.979Z,50.70
2023-05-19T11:36:18.960Z,49.31
2023-05-19T11:37:18.946Z,50.55
2023-05-19T11:38:18.933Z,52.39
2023-05-19T11:39:18.924Z,51.68
2023-05-19T11:40:18.921Z,50.62
2023-05-19T11:41:20.679Z,50.50
2023-05-19T11:42:19.900Z,50.27
2023-05-19T11:43:18.889Z,51.99
2023-05-19T11:44:18.875Z,48.84
2023-05-19T11:45:18.884Z,49.67
2023-05-19T11:46:18.891Z,49.07
2023-05-19T11:47:18.838Z,50.37
2023-05-19T11:48:18.869Z,49.27
2023-05-19T11:49:18.841Z,49.37
2023-05-19T11:50:18.836Z,50.12
2023-05-19T11:51:18.805Z,48.91
2023-05-19T11:52:18.793Z,48.28
2023-05-19T11:53:18.787Z,50.63
2023-05-19T11:54:18.773Z,52.09
2023-05-19T11:55:18.773Z,48.75
2023-05-19T11:56:18.758Z,46.38
2023-05-19T11:57:18.756Z,48.97
2023-05-19T11:58:18.747Z,47.49
2023-05-19T11:59:18.729Z,48.94
2023-05-19T12:00:18.717Z,49.55
2023-05-19T12:01:18.699Z,50.33
2023-05-19T12:02:18.721Z,48.36
2023-05-19T12:03:18.713Z,49.55
2023-05-19T12:04:18.679Z,49.69
2023-05-19T12:05:18.803Z,48.69
2023-05-19T12:06:18.680Z,48.28
2023-05-19T12:07:18.690Z,49.09
2023-05-19T12:08:18.656Z,52.39
2023-05-19T12:09:18.630Z,46.83
2023-05-19T12:10:18.609Z,50.40
2023-05-19T12:11:19.972Z,47.97
2023-05-19T12:12:18.597Z,46.70
2023-05-19T12:13:18.579Z,46.06
2023-05-19T12:14:18.586Z,45.50
2023-05-19T12:15:18.571Z,52.64
2023-05-19T12:16:18.618Z,48.24
2023-05-19T12:17:18.538Z,48.96
2023-05-19T12:18:18.544Z,47.88
2023-05-19T12:19:18.549Z,48.46
2023-05-19T12:20:18.512Z,49.27
2023-05-19T12:21:18.550Z,49.09
2023-05-19T12:22:18.491Z,49.01
2023-05-19T12:23:18.513Z,48.41
2023-05-19T12:24:18.478Z,48.63
2023-05-19T12:25:18.458Z,48.91
2023-05-19T12:26:18.452Z,48.50
2023-05-19T12:27:18.455Z,48.89
2023-05-19T12:28:18.448Z,49.07
2023-05-19T12:29:18.428Z,48.69
2023-05-19T12:30:18.427Z,47.90
2023-05-19T12:31:18.422Z,49.05
2023-05-19T12:32:18.418Z,47.87
2023-05-19T12:33:18.394Z,49.28
2023-05-19T12:34:19.378Z,51.48
2023-05-19T12:35:18.362Z,50.32
2023-05-19T12:36:18.359Z,50.22
2023-05-19T12:37:18.360Z,48.08
2023-05-19T12:38:18.337Z,46.55
2023-05-19T12:39:19.504Z,47.35
2023-05-19T12:40:18.332Z,46.62
2023-05-19T12:41:18.319Z,46.62
2023-05-19T12:42:18.347Z,50.93
2023-05-19T12:43:18.283Z,48.94
2023-05-19T12:44:18.273Z,47.43
2023-05-19T12:45:18.267Z,48.99
2023-05-19T12:46:18.343Z,49.82
2023-05-19T12:47:18.242Z,49.74
2023-05-19T12:48:18.281Z,49.69
2023-05-19T12:49:18.225Z,51.20
2023-05-19T12:50:18.229Z,50.98
2023-05-19T12:51:18.214Z,49.94
2023-05-19T12:52:19.205Z,48.53